createdAt,value
2019-02-09T00:01:57.202Z,0.65
2019-02-09T00:04:26.887Z,0.72
2019-02-09T00:06:56.605Z,0.56
2019-02-09T00:09:26.586Z,0.61
2019-02-09T00:11:56.220Z,0.58
2019-02-09T00:14:26.033Z,0.88
2019-02-09T00:16:56.115Z,1.10
2019-02-09T00:19:26.037Z,1.11
2019-02-09T00:21:55.886Z,1.15
2019-02-09T00:24:25.924Z,1.09
2019-02-09T00:26:56.003Z,1.12
2019-02-09T00:29:25.658Z,0.90
2019-02-09T00:31:55.757Z,0.85
2019-02-09T00:34:25.829Z,0.86
2019-02-09T00:36:55.735Z,0.95
2019-02-09T00:39:25.500Z,0.98
2019-02-09T00:41:55.259Z,0.94
2019-02-09T00:44:25.134Z,1.02
2019-02-09T00:46:54.899Z,1.20
2019-02-09T00:49:24.659Z,1.10
2019-02-09T00:51:54.483Z,0.80
2019-02-09T00:54:24.454Z,0.90
2019-02-09T00:56:54.207Z,0.89
2019-02-09T00:59:24.121Z,0.84
2019-02-09T01:01:53.982Z,0.99
2019-02-09T01:04:23.942Z,0.97
2019-02-09T01:06:53.672Z,0.82
2019-02-09T01:09:23.633Z,0.91
2019-02-09T01:11:53.634Z,1.01
2019-02-09T01:14:23.515Z,1.09
2019-02-09T01:16:53.385Z,1.07
2019-02-09T01:19:23.241Z,1.03
2019-02-09T01:21:53.077Z,0.87
2019-02-09T01:24:22.923Z,0.78
2019-02-09T01:26:52.900Z,0.86
2019-02-09T01:29:22.705Z,0.97
2019-02-09T01:31:52.676Z,1.15
2019-02-09T01:34:22.445Z,1.44
2019-02-09T01:36:52.252Z,1.40
2019-02-09T01:39:22.256Z,1.38
2019-02-09T01:41:52.219Z,1.37
2019-02-09T01:44:22.032Z,1.34
2019-02-09T01:46:51.771Z,1.26
2019-02-09T01:49:21.543Z,1.37
2019-02-09T01:51:51.477Z,1.43
2019-02-09T01:54:21.286Z,1.45
2019-02-09T01:56:51.249Z,1.48
2019-02-09T01:59:21.008Z,1.19
2019-02-09T02:01:50.832Z,1.20
2019-02-09T02:04:20.947Z,1.33
2019-02-09T02:06:50.746Z,1.35
2019-02-09T02:09:20.678Z,1.28
2019-02-09T02:11:50.930Z,0.98
2019-02-09T02:14:20.696Z,0.98
2019-02-09T02:16:50.507Z,1.05
2019-02-09T02:19:20.177Z,0.96
2019-02-09T02:21:50.164Z,1.08
2019-02-09T02:24:20.066Z,1.04
2019-02-09T02:26:50.037Z,1.01
2019-02-09T02:29:20.021Z,0.95
2019-02-09T02:31:50.135Z,0.97
2019-02-09T02:34:20.064Z,0.97
2019-02-09T02:36:49.849Z,0.97
2019-02-09T02:39:19.683Z,0.98
2019-02-09T02:41:50.868Z,1.05
2019-02-09T02:44:20.628Z,1.23
2019-02-09T02:46:50.565Z,1.15
2019-02-09T02:49:20.527Z,1.09
2019-02-09T02:51:50.281Z,1.06
2019-02-09T02:54:21.103Z,1.00
2019-02-09T02:56:50.890Z,0.97
2019-02-09T02:59:20.576Z,0.99
2019-02-09T03:01:50.453Z,0.97
2019-02-09T03:04:20.356Z,0.89
2019-02-09T03:06:50.092Z,0.87
2019-02-09T03:09:20.016Z,0.83
2019-02-09T03:11:49.813Z,0.86
2019-02-09T03:14:19.876Z,0.81
2019-02-09T03:16:49.661Z,0.70
2019-02-09T03:19:19.629Z,0.71
2019-02-09T03:21:49.267Z,0.76
2019-02-09T03:24:18.987Z,0.67
2019-02-09T03:26:48.863Z,0.65
2019-02-09T03:29:18.624Z,0.63
2019-02-09T03:31:48.368Z,0.65
2019-02-09T03:34:18.091Z,0.68
2019-02-09T03:36:47.951Z,0.65
2019-02-09T03:39:17.787Z,0.68
2019-02-09T03:41:47.980Z,0.59
2019-02-09T03:44:17.797Z,0.67
2019-02-09T03:46:47.947Z,0.69
2019-02-09T03:49:17.895Z,0.77
2019-02-09T03:51:47.870Z,0.97
2019-02-09T03:54:17.678Z,0.98
2019-02-09T03:56:48.765Z,1.03
2019-02-09T03:59:18.536Z,1.03
2019-02-09T04:01:48.577Z,1.03
2019-02-09T04:04:18.425Z,1.10
2019-02-09T04:06:48.204Z,1.18
2019-02-09T04:09:17.922Z,1.23
2019-02-09T04:11:47.930Z,1.33
2019-02-09T04:14:17.652Z,1.21
2019-02-09T04:16:47.556Z,1.22
2019-02-09T04:19:17.533Z,1.09
2019-02-09T04:21:47.429Z,1.07
2019-02-09T04:24:17.403Z,1.09
2019-02-09T04:26:47.307Z,0.99
2019-02-09T04:29:17.298Z,1.07
2019-02-09T04:31:47.071Z,0.98
2019-02-09T04:34:16.863Z,0.57
2019-02-09T04:36:46.848Z,0.21
2019-02-09T04:39:16.531Z,0.08
2019-02-09T04:41:46.402Z,0.36
2019-02-09T04:44:16.190Z,0.50
2019-02-09T04:46:46.048Z,0.29
2019-02-09T04:49:15.861Z,0.46
2019-02-09T04:51:45.825Z,0.37
2019-02-09T04:54:15.580Z,-0.02
2019-02-09T04:56:45.313Z,-0.09
2019-02-09T04:59:15.216Z,-0.03
2019-02-09T05:01:45.333Z,0.29
2019-02-09T05:04:15.142Z,0.43
2019-02-09T05:06:45.132Z,0.48
2019-02-09T05:09:14.976Z,0.44
2019-02-09T05:11:44.796Z,0.36
2019-02-09T05:14:14.669Z,0.36
2019-02-09T05:16:44.427Z,0.37
2019-02-09T05:19:14.220Z,0.51
2019-02-09T05:21:44.089Z,0.56
2019-02-09T05:24:13.752Z,0.33
2019-02-09T05:26:43.600Z,0.30
2019-02-09T05:29:13.562Z,0.28
2019-02-09T05:31:43.422Z,-0.07
2019-02-09T05:34:13.222Z,-0.39
2019-02-09T05:36:43.108Z,-0.21
2019-02-09T05:39:12.818Z,-0.10
2019-02-09T05:41:42.785Z,-0.12
2019-02-09T05:44:12.586Z,-0.21
2019-02-09T05:46:42.564Z,-0.32
2019-02-09T05:49:12.213Z,-0.46
2019-02-09T05:51:42.133Z,-0.26
2019-02-09T05:54:11.984Z,0.00
2019-02-09T05:56:42.079Z,0.06
2019-02-09T05:59:12.199Z,0.21
2019-02-09T06:01:41.955Z,-0.10
2019-02-09T06:04:11.828Z,0.22
2019-02-09T06:06:42.670Z,0.43
2019-02-09T06:09:12.527Z,0.31
2019-02-09T06:11:42.267Z,0.44
2019-02-09T06:14:12.310Z,0.70
2019-02-09T06:16:42.047Z,0.79
2019-02-09T06:19:11.834Z,0.83
2019-02-09T06:21:43.112Z,1.03
2019-02-09T06:24:12.790Z,1.06
2019-02-09T06:26:42.587Z,1.06
2019-02-09T06:29:13.674Z,0.98
2019-02-09T06:31:43.447Z,1.27
2019-02-09T06:34:13.290Z,1.25
2019-02-09T06:36:43.029Z,1.35
2019-02-09T06:39:12.735Z,1.52
2019-02-09T06:41:42.615Z,1.49
2019-02-09T06:44:12.412Z,1.58
2019-02-09T06:46:42.090Z,1.95
2019-02-09T06:49:11.995Z,1.92
2019-02-09T06:51:42.164Z,2.05
2019-02-09T06:54:12.006Z,2.11
2019-02-09T06:56:43.035Z,2.09
2019-02-09T06:59:12.760Z,2.03
2019-02-09T07:01:48.592Z,1.69
2019-02-09T07:04:14.259Z,1.28
2019-02-09T07:06:44.145Z,1.40
2019-02-09T07:09:14.071Z,1.38
2019-02-09T07:11:45.135Z,1.30
2019-02-09T07:14:14.805Z,1.35
2019-02-09T07:16:44.720Z,1.47
2019-02-09T07:19:14.488Z,1.60
2019-02-09T07:21:44.273Z,1.83
2019-02-09T07:24:14.257Z,1.91
2019-02-09T07:26:44.048Z,2.23
2019-02-09T07:29:13.811Z,2.51
2019-02-09T07:31:43.823Z,2.80
2019-02-09T07:34:13.608Z,2.71
2019-02-09T07:36:43.113Z,2.69
2019-02-09T07:39:12.874Z,2.89
2019-02-09T07:41:42.823Z,3.17
2019-02-09T07:44:12.469Z,2.79
2019-02-09T07:46:42.379Z,2.85
2019-02-09T07:49:13.486Z,2.70
2019-02-09T07:51:43.256Z,2.93
2019-02-09T07:54:13.160Z,3.22
2019-02-09T07:56:44.033Z,3.58
2019-02-09T07:59:13.839Z,3.64
2019-02-09T08:01:43.552Z,3.74
2019-02-09T08:04:13.283Z,3.92
2019-02-09T08:06:43.056Z,4.20
2019-02-09T08:09:13.814Z,3.70
2019-02-09T08:11:43.796Z,3.74
2019-02-09T08:14:13.433Z,3.89
2019-02-09T08:16:43.634Z,3.47
2019-02-09T08:19:13.533Z,3.71
2019-02-09T08:21:44.426Z,3.76
2019-02-09T08:24:14.217Z,3.91
2019-02-09T08:26:44.259Z,3.92
2019-02-09T08:29:15.393Z,3.82
2019-02-09T08:31:45.247Z,4.15
2019-02-09T08:34:15.008Z,4.46
2019-02-09T08:36:44.840Z,4.33
2019-02-09T08:39:15.894Z,4.34
2019-02-09T08:41:45.589Z,4.58
2019-02-09T08:44:15.388Z,4.60
2019-02-09T08:46:45.360Z,4.82
2019-02-09T08:49:15.343Z,4.67
2019-02-09T08:51:45.154Z,4.60
2019-02-09T08:54:15.105Z,4.83
2019-02-09T08:56:44.866Z,4.45
2019-02-09T08:59:14.695Z,4.62
2019-02-09T09:01:45.744Z,4.80
2019-02-09T09:04:15.505Z,5.03
2019-02-09T09:06:45.372Z,4.60
2019-02-09T09:09:15.182Z,4.60
2019-02-09T09:11:45.052Z,4.91
2019-02-09T09:14:14.697Z,5.13
2019-02-09T09:16:44.427Z,4.97
2019-02-09T09:19:14.394Z,4.47
2019-02-09T09:21:44.140Z,4.29
2019-02-09T09:24:14.060Z,3.99
2019-02-09T09:26:44.140Z,3.67
2019-02-09T09:29:13.880Z,3.86
2019-02-09T09:31:43.799Z,4.15
2019-02-09T09:34:15.190Z,4.04
2019-02-09T09:36:45.085Z,3.91
2019-02-09T09:39:15.045Z,4.10
2019-02-09T09:41:45.067Z,4.29
2019-02-09T09:44:14.948Z,4.61
2019-02-09T09:46:46.023Z,5.06
2019-02-09T09:49:16.104Z,5.22
2019-02-09T09:51:46.122Z,5.37
2019-02-09T09:54:17.174Z,5.50
2019-02-09T09:56:46.963Z,5.57
2019-02-09T09:59:16.905Z,5.93
2019-02-09T10:01:46.744Z,6.37
2019-02-09T10:04:16.931Z,6.57
2019-02-09T10:06:46.751Z,6.94
2019-02-09T10:09:16.712Z,6.53
2019-02-09T10:11:46.581Z,7.29
2019-02-09T10:14:16.515Z,7.01
2019-02-09T10:16:48.116Z,6.05
2019-02-09T10:19:18.163Z,6.13
2019-02-09T10:21:47.983Z,6.54
2019-02-09T10:24:17.837Z,7.23
2019-02-09T10:26:47.517Z,7.73
2019-02-09T10:29:17.326Z,7.67
2019-02-09T10:31:47.083Z,7.41
2019-02-09T10:34:16.948Z,6.08
2019-02-09T10:36:46.760Z,6.05
2019-02-09T10:39:16.628Z,6.70
2019-02-09T10:41:46.436Z,7.17
2019-02-09T10:44:16.452Z,7.19
2019-02-09T10:46:46.344Z,6.71
2019-02-09T10:49:16.036Z,6.37
2019-02-09T10:51:45.908Z,6.17
2019-02-09T10:54:15.662Z,5.80
2019-02-09T10:56:46.189Z,5.23
2019-02-09T10:59:16.190Z,6.23
2019-02-09T11:01:46.141Z,6.71
2019-02-09T11:04:16.261Z,7.12
2019-02-09T11:06:46.463Z,7.68
2019-02-09T11:09:22.061Z,7.75
2019-02-09T11:11:51.914Z,7.76
2019-02-09T11:14:21.652Z,8.09
2019-02-09T11:16:51.473Z,8.08
2019-02-09T11:19:21.319Z,8.62
2019-02-09T11:21:51.421Z,8.58
2019-02-09T11:24:21.213Z,8.64
2019-02-09T11:26:51.179Z,8.17
2019-02-09T11:29:20.950Z,7.49
2019-02-09T11:31:50.770Z,6.96
2019-02-09T11:34:20.524Z,7.02
2019-02-09T11:36:50.768Z,6.27
2019-02-09T11:39:20.638Z,6.47
2019-02-09T11:41:50.584Z,6.16
2019-02-09T11:44:20.439Z,5.60
2019-02-09T11:46:50.155Z,5.76
2019-02-09T11:49:21.038Z,6.34
2019-02-09T11:51:50.727Z,6.92
2019-02-09T11:54:20.621Z,7.11
2019-02-09T11:56:50.947Z,7.10
2019-02-09T11:59:21.363Z,7.38
2019-02-09T12:01:51.983Z,7.05
2019-02-09T12:04:21.887Z,7.18
2019-02-09T12:06:51.650Z,7.80
2019-02-09T12:09:21.467Z,7.80
2019-02-09T12:11:51.427Z,7.83
2019-02-09T12:14:21.318Z,8.27
2019-02-09T12:16:51.208Z,8.08
2019-02-09T12:19:23.751Z,8.11
2019-02-09T12:21:53.395Z,8.13
2019-02-09T12:24:23.219Z,7.31
2019-02-09T12:26:53.289Z,6.84
2019-02-09T12:29:22.854Z,6.22
2019-02-09T12:31:52.765Z,6.26
2019-02-09T12:34:23.829Z,6.23
2019-02-09T12:36:53.520Z,6.47
2019-02-09T12:39:23.329Z,6.19
2019-02-09T12:41:53.184Z,6.07
2019-02-09T12:44:22.962Z,5.46
2019-02-09T12:46:52.776Z,5.39
2019-02-09T12:49:22.726Z,5.47
2019-02-09T12:51:52.830Z,5.70
2019-02-09T12:54:22.567Z,5.84
2019-02-09T12:56:52.234Z,6.03
2019-02-09T12:59:22.040Z,5.92
2019-02-09T13:01:51.867Z,6.39
2019-02-09T13:04:21.735Z,6.73
2019-02-09T13:06:51.494Z,7.19
2019-02-09T13:09:21.835Z,7.11
2019-02-09T13:11:51.594Z,7.22
2019-02-09T13:14:21.504Z,7.29
2019-02-09T13:16:51.171Z,7.52
2019-02-09T13:19:20.978Z,7.57
2019-02-09T13:21:51.063Z,7.67
2019-02-09T13:24:21.111Z,7.87
2019-02-09T13:26:51.107Z,7.86
2019-02-09T13:29:20.937Z,8.08
2019-02-09T13:31:50.756Z,7.94
2019-02-09T13:34:20.619Z,8.11
2019-02-09T13:36:50.585Z,8.36
2019-02-09T13:39:21.709Z,8.35
2019-02-09T13:41:51.472Z,8.24
2019-02-09T13:44:22.629Z,8.33
2019-02-09T13:46:52.309Z,8.67
2019-02-09T13:49:21.933Z,8.62
2019-02-09T13:51:51.689Z,8.45
2019-02-09T13:54:21.772Z,8.60
2019-02-09T13:56:51.380Z,8.38
2019-02-09T13:59:22.325Z,8.46
2019-02-09T14:01:51.910Z,8.99
2019-02-09T14:04:21.829Z,8.81
2019-02-09T14:06:51.706Z,9.19
2019-02-09T14:09:21.509Z,9.43
2019-02-09T14:11:51.269Z,9.64
2019-02-09T14:14:21.237Z,10.37
2019-02-09T14:16:51.133Z,10.65
2019-02-09T14:19:22.190Z,11.21
2019-02-09T14:21:52.078Z,11.82
2019-02-09T14:24:21.998Z,11.88
2019-02-09T14:26:53.016Z,11.55
2019-02-09T14:29:22.637Z,11.66
2019-02-09T14:31:52.466Z,10.74
2019-02-09T14:34:22.538Z,10.64
2019-02-09T14:36:52.357Z,9.99
2019-02-09T14:39:22.332Z,9.71
2019-02-09T14:41:53.044Z,9.56
2019-02-09T14:44:22.895Z,9.40
2019-02-09T14:46:52.808Z,9.46
2019-02-09T14:49:22.611Z,9.18
2019-02-09T14:51:52.528Z,9.46
2019-02-09T14:54:22.460Z,9.28
2019-02-09T14:56:52.222Z,9.08
2019-02-09T14:59:21.966Z,9.44
2019-02-09T15:01:52.795Z,9.07
2019-02-09T15:04:22.498Z,8.60
2019-02-09T15:06:53.545Z,8.60
2019-02-09T15:09:23.816Z,8.51
2019-02-09T15:11:53.559Z,8.35
2019-02-09T15:14:23.328Z,8.31
2019-02-09T15:16:55.097Z,7.89
2019-02-09T15:19:31.954Z,7.51
2019-02-09T15:22:01.881Z,7.39
2019-02-09T15:24:31.881Z,7.35
2019-02-09T15:27:02.001Z,7.31
2019-02-09T15:29:32.368Z,7.19
2019-02-09T15:32:02.024Z,7.02
2019-02-09T15:34:31.849Z,6.89
2019-02-09T15:37:01.946Z,6.76
2019-02-09T15:39:31.661Z,6.62
2019-02-09T15:42:01.606Z,6.37
2019-02-09T15:44:32.794Z,6.36
2019-02-09T15:47:02.654Z,6.13
2019-02-09T15:49:32.461Z,5.96
2019-02-09T15:52:02.226Z,5.82
2019-02-09T15:54:31.897Z,5.69
2019-02-09T15:57:01.654Z,5.56
2019-02-09T15:59:31.540Z,5.52
2019-02-09T16:02:02.597Z,5.48
2019-02-09T16:04:32.601Z,5.41
2019-02-09T16:07:02.410Z,5.48
2019-02-09T16:09:32.366Z,5.45
2019-02-09T16:12:02.143Z,5.50
2019-02-09T16:14:32.075Z,5.42
2019-02-09T16:17:02.178Z,5.41
2019-02-09T16:19:31.989Z,5.48
2019-02-09T16:22:01.896Z,5.49
2019-02-09T16:24:32.159Z,5.46
2019-02-09T16:27:01.981Z,5.43
2019-02-09T16:29:31.984Z,5.52
2019-02-09T16:32:01.783Z,5.50
2019-02-09T16:34:31.926Z,5.51
2019-02-09T16:37:01.709Z,5.49
2019-02-09T16:39:31.528Z,5.58
2019-02-09T16:42:02.684Z,5.60
2019-02-09T16:44:32.666Z,5.62
2019-02-09T16:47:03.928Z,5.60
2019-02-09T16:49:33.872Z,5.56
2019-02-09T16:52:03.651Z,5.63
2019-02-09T16:54:33.495Z,5.56
2019-02-09T16:57:03.345Z,5.57
2019-02-09T16:59:33.114Z,5.53
2019-02-09T17:02:02.917Z,5.58
2019-02-09T17:04:33.386Z,5.50
2019-02-09T17:07:03.460Z,5.49
2019-02-09T17:09:33.482Z,5.47
2019-02-09T17:12:03.353Z,5.49
2019-02-09T17:14:33.109Z,5.47
2019-02-09T17:17:03.024Z,5.47
2019-02-09T17:19:32.887Z,5.41
2019-02-09T17:22:02.613Z,5.38
2019-02-09T17:24:32.381Z,5.31
2019-02-09T17:27:02.269Z,5.19
2019-02-09T17:29:31.998Z,5.21
2019-02-09T17:32:02.990Z,5.22
2019-02-09T17:34:32.754Z,5.16
2019-02-09T17:37:02.792Z,5.07
2019-02-09T17:39:32.848Z,5.00
2019-02-09T17:42:03.119Z,4.89
2019-02-09T17:44:33.035Z,4.73
2019-02-09T17:47:03.163Z,4.70
2019-02-09T17:49:33.009Z,4.64
2019-02-09T17:52:02.792Z,4.43
2019-02-09T17:54:32.515Z,4.31
2019-02-09T17:57:02.385Z,4.30
2019-02-09T17:59:32.142Z,4.23
2019-02-09T18:02:02.033Z,4.15
2019-02-09T18:04:31.797Z,4.10
2019-02-09T18:07:01.568Z,4.08
2019-02-09T18:09:32.762Z,4.05
2019-02-09T18:12:02.523Z,4.00
2019-02-09T18:14:32.340Z,3.92
2019-02-09T18:17:02.216Z,3.95
2019-02-09T18:19:31.983Z,3.96
2019-02-09T18:22:01.885Z,3.97
2019-02-09T18:24:31.851Z,4.10
2019-02-09T18:27:01.755Z,4.16
2019-02-09T18:29:31.431Z,4.15
2019-02-09T18:32:01.502Z,4.24
2019-02-09T18:34:31.390Z,4.40
2019-02-09T18:37:01.408Z,4.48
2019-02-09T18:39:31.520Z,4.57
2019-02-09T18:42:01.272Z,4.61
2019-02-09T18:44:31.053Z,4.64
2019-02-09T18:47:02.278Z,4.67
2019-02-09T18:49:32.046Z,4.65
2019-02-09T18:52:01.924Z,4.75
2019-02-09T18:54:31.786Z,4.75
2019-02-09T18:57:02.074Z,4.49
2019-02-09T18:59:31.760Z,4.33
2019-02-09T19:02:01.622Z,3.87
2019-02-09T19:04:31.389Z,3.98
2019-02-09T19:07:01.325Z,3.84
2019-02-09T19:09:31.292Z,3.96
2019-02-09T19:12:01.042Z,4.21
2019-02-09T19:14:30.846Z,4.09
2019-02-09T19:17:00.571Z,4.08
2019-02-09T19:19:30.602Z,4.10
2019-02-09T19:22:00.449Z,4.22
2019-02-09T19:24:30.666Z,4.11
2019-02-09T19:27:00.444Z,3.88
2019-02-09T19:29:30.486Z,3.98
2019-02-09T19:32:02.151Z,3.89
2019-02-09T19:34:31.943Z,3.89
2019-02-09T19:37:01.772Z,3.68
2019-02-09T19:39:32.909Z,3.65
2019-02-09T19:42:02.874Z,3.58
2019-02-09T19:44:32.671Z,3.56
2019-02-09T19:47:02.552Z,3.53
2019-02-09T19:49:32.358Z,3.47
2019-02-09T19:52:02.292Z,3.46
2019-02-09T19:54:32.243Z,3.27
2019-02-09T19:57:01.996Z,3.20
2019-02-09T19:59:31.814Z,3.07
2019-02-09T20:02:03.100Z,2.94
2019-02-09T20:04:32.888Z,2.97
2019-02-09T20:07:02.903Z,2.98
2019-02-09T20:09:32.636Z,3.03
2019-02-09T20:12:02.421Z,2.99
2019-02-09T20:14:32.194Z,3.03
2019-02-09T20:17:02.077Z,2.93
2019-02-09T20:19:31.859Z,2.83
2019-02-09T20:22:01.631Z,2.75
2019-02-09T20:24:31.511Z,2.62
2019-02-09T20:27:01.431Z,2.67
2019-02-09T20:29:32.506Z,2.61
2019-02-09T20:32:02.287Z,2.68
2019-02-09T20:34:31.983Z,2.73
2019-02-09T20:37:03.177Z,2.73
2019-02-09T20:39:33.161Z,2.71
2019-02-09T20:42:03.072Z,2.71
2019-02-09T20:44:33.045Z,2.57
2019-02-09T20:47:02.911Z,2.59
2019-02-09T20:49:32.813Z,2.59
2019-02-09T20:52:04.264Z,2.54
2019-02-09T20:54:34.405Z,2.56
2019-02-09T20:57:04.111Z,2.58
2019-02-09T20:59:33.986Z,2.52
2019-02-09T21:02:04.460Z,2.56
2019-02-09T21:04:34.372Z,2.52
2019-02-09T21:07:04.228Z,2.58
2019-02-09T21:09:34.163Z,2.57
2019-02-09T21:12:03.801Z,2.55
2019-02-09T21:14:33.682Z,2.52
2019-02-09T21:17:03.551Z,2.43
2019-02-09T21:19:33.497Z,2.47
2019-02-09T21:22:03.500Z,2.35
2019-02-09T21:24:33.397Z,2.33
2019-02-09T21:27:04.460Z,2.32
2019-02-09T21:29:34.251Z,2.34
2019-02-09T21:32:04.159Z,2.36
2019-02-09T21:34:34.152Z,2.33
2019-02-09T21:37:03.917Z,2.34
2019-02-09T21:39:34.184Z,2.27
2019-02-09T21:42:04.089Z,2.25
2019-02-09T21:44:34.075Z,2.21
2019-02-09T21:47:04.072Z,2.25
2019-02-09T21:49:33.965Z,2.27
2019-02-09T21:52:03.921Z,2.28
2019-02-09T21:54:33.830Z,2.30
2019-02-09T21:57:03.666Z,2.19
2019-02-09T21:59:33.459Z,2.20
2019-02-09T22:02:03.270Z,2.26
2019-02-09T22:04:33.337Z,2.17
2019-02-09T22:07:03.199Z,2.18
2019-02-09T22:09:33.034Z,2.22
2019-02-09T22:12:02.919Z,2.23
2019-02-09T22:14:32.642Z,2.27
2019-02-09T22:17:02.259Z,2.29
2019-02-09T22:19:32.079Z,2.25
2019-02-09T22:22:02.089Z,2.34
2019-02-09T22:24:32.122Z,2.38
2019-02-09T22:27:02.024Z,2.35
2019-02-09T22:29:32.228Z,2.38
2019-02-09T22:32:02.077Z,2.39
2019-02-09T22:34:31.876Z,2.36
2019-02-09T22:37:01.603Z,2.37
2019-02-09T22:39:31.444Z,2.44
2019-02-09T22:42:01.410Z,2.38
2019-02-09T22:44:31.362Z,2.26
2019-02-09T22:47:01.152Z,2.27
2019-02-09T22:49:31.052Z,2.15
2019-02-09T22:52:00.865Z,2.11
2019-02-09T22:54:30.609Z,2.07
2019-02-09T22:57:00.407Z,1.90
2019-02-09T22:59:30.571Z,1.68
2019-02-09T23:02:00.661Z,1.60
2019-02-09T23:05:17.133Z,1.47
2019-02-09T23:07:47.070Z,1.20
2019-02-09T23:10:17.010Z,1.08
2019-02-09T23:12:48.537Z,1.07
2019-02-09T23:15:18.351Z,0.99
2019-02-09T23:17:48.115Z,0.99
2019-02-09T23:20:18.924Z,1.00
2019-02-09T23:22:48.720Z,0.97
2019-02-09T23:25:18.583Z,0.93
2019-02-09T23:27:48.498Z,0.92
2019-02-09T23:30:18.389Z,0.80
2019-02-09T23:32:48.398Z,0.76
2019-02-09T23:35:18.207Z,0.69
2019-02-09T23:37:48.049Z,0.72
2019-02-09T23:40:17.873Z,0.75
2019-02-09T23:42:47.552Z,0.69
2019-02-09T23:45:17.357Z,0.70
2019-02-09T23:47:48.675Z,0.61
2019-02-09T23:50:18.438Z,0.71
2019-02-09T23:52:48.342Z,0.73
2019-02-09T23:55:18.300Z,0.75
2019-02-09T23:57:48.497Z,0.72
